Terminal Aerodrome Forecast
Issued by NWS Sterling, VA

Current Version | Previous Version | Graphics & Text | Print | Product List | Glossary On
Versions: 1 2 3 4 5 6 7 8 9 10 11 12 13 14 15 16 17 18 19 20 21 22 23 24
000
FTUS41 KLWX 051132
TAFDCA
TAF
KDCA 051132Z 0512/0612 22008KT P6SM BKN008 OVC035
     FM051300 29006KT P6SM SCT008 BKN050
     FM051600 32008G16KT P6SM BKN050
     FM052200 33007KT P6SM SCT200
     FM060500 VRB03KT P6SM OVC200=

USA.gov is the U.S. government's official web portal to all federal, state and local government web resources and services.